Time;durP1;ratioP1;P1;durP2;ratioP2;P2;SDS_P1;SDS_P2;PMS_P1;PMS_P2;Temp;Humidity;BMP_temperature;BMP_pressure;BME280_temperature;BME280_humidity;BME280_pressure;Samples;Min_cycle;Max_cycle;Signal;HPM_P1;HPM_P2
2022/01/29 00:00:50;;;;;;;4.72;2.45;;;;;;;2.60;53.77;100366.03;5085543;28;20071;-68
2022/01/29 00:03:19;;;;;;;8.20;3.55;;;;;;;2.71;53.64;100393.00;5084711;28;20204;-68
2022/01/29 00:05:50;;;;;;;5.95;2.42;;;;;;;3.00;53.82;100439.91;5085490;28;20048;-68
2022/01/29 00:08:20;;;;;;;6.85;2.13;;;;;;;3.02;53.82;100440.78;5085014;28;20070;-68
2022/01/29 00:10:54;;;;;;;6.65;2.17;;;;;;;3.03;53.71;100453.00;5085627;28;20289;-68
2022/01/29 00:13:25;;;;;;;6.38;2.97;;;;;;;3.03;53.69;100432.03;5085415;28;20213;-68
2022/01/29 00:15:57;;;;;;;10.30;2.97;;;;;;;3.02;53.84;100440.78;5085263;28;20037;-68
2022/01/29 00:18:26;;;;;;;7.18;3.40;;;;;;;3.00;53.81;100434.69;5085131;28;20102;-67
2022/01/29 00:20:57;;;;;;;6.88;2.78;;;;;;;2.98;53.97;100426.84;5084686;28;20071;-68
2022/01/29 00:23:26;;;;;;;8.20;2.85;;;;;;;3.01;53.97;100432.03;5085336;28;20075;-67
2022/01/29 00:25:57;;;;;;;7.20;2.70;;;;;;;3.01;54.12;100431.19;5085643;28;20196;-68
2022/01/29 00:28:28;;;;;;;4.68;2.90;;;;;;;3.00;54.00;100418.97;5085430;28;20312;-69
2022/01/29 00:30:58;;;;;;;4.45;2.65;;;;;;;2.99;53.81;100412.84;5084554;28;20075;-68
2022/01/29 00:33:27;;;;;;;5.22;2.30;;;;;;;2.98;53.73;100415.50;5085157;28;20052;-68
2022/01/29 00:35:58;;;;;;;5.35;2.50;;;;;;;2.76;53.60;100376.38;5085205;28;20208;-67
2022/01/29 00:38:28;;;;;;;7.20;2.22;;;;;;;3.00;53.58;100414.59;5085156;28;20036;-68
2022/01/29 00:40:58;;;;;;;6.13;2.80;;;;;;;3.00;53.73;100597.06;5085395;28;20323;-68
2022/01/29 00:43:28;;;;;;;3.60;2.10;;;;;;;2.67;53.74;100357.25;5085094;28;20203;-67
2022/01/29 00:46:01;;;;;;;6.20;2.50;;;;;;;2.05;53.84;100269.59;5067436;28;20041;-68
2022/01/29 00:48:29;;;;;;;7.57;2.22;;;;;;;2.93;53.75;100419.88;5085067;28;20052;-67
2022/01/29 00:51:00;;;;;;;8.13;2.97;;;;;;;2.92;53.93;100421.63;5085251;28;20311;-68
2022/01/29 00:53:29;;;;;;;6.75;2.33;;;;;;;2.91;54.03;100416.41;5085236;28;20288;-67
2022/01/29 00:56:05;;;;;;;8.93;2.60;;;;;;;2.86;53.92;100419.06;5085189;28;20048;-68
2022/01/29 00:58:37;;;;;;;8.93;3.03;;;;;;;2.83;54.09;100412.09;5085176;28;20040;-68
2022/01/29 01:01:11;;;;;;;7.72;2.47;;;;;;;2.82;53.95;100412.97;5084896;28;20040;-68
2022/01/29 01:03:43;;;;;;;6.30;2.22;;;;;;;2.79;54.11;100420.84;5085176;28;20041;-68
2022/01/29 01:06:15;;;;;;;9.50;2.72;;;;;;;2.77;54.23;100403.41;5084846;28;20048;-68
2022/01/29 01:08:47;;;;;;;5.63;2.50;;;;;;;2.75;54.14;100405.19;5085045;28;20048;-68
2022/01/29 01:11:20;;;;;;;4.97;2.17;;;;;;;2.75;54.09;100400.81;5084890;28;20036;-68
2022/01/29 01:13:52;;;;;;;6.53;3.20;;;;;;;2.76;54.22;100409.53;5085159;28;20089;-68
2022/01/29 01:16:26;;;;;;;4.57;2.65;;;;;;;2.44;54.31;100370.47;5084662;28;20094;-69
2022/01/29 01:18:58;;;;;;;8.50;3.15;;;;;;;2.72;54.35;100406.06;5085043;28;20098;-65
2022/01/29 01:21:30;;;;;;;5.13;2.42;;;;;;;2.46;54.32;100363.50;5087109;28;20054;-67
2022/01/29 01:24:02;;;;;;;6.60;2.53;;;;;;;2.66;54.35;100406.09;5088431;28;20048;-68
2022/01/29 01:26:35;;;;;;;5.40;2.38;;;;;;;2.65;54.43;100393.91;5088606;28;20044;-69
2022/01/29 01:29:07;;;;;;;7.93;2.95;;;;;;;2.68;54.26;100396.50;5087778;28;20090;-68
2022/01/29 01:31:43;;;;;;;6.35;2.38;;;;;;;2.63;54.54;100413.97;5088599;28;20142;-68
2022/01/29 01:34:19;;;;;;;8.55;2.60;;;;;;;2.62;54.74;100386.06;5088149;28;20252;-68
2022/01/29 01:36:55;;;;;;;7.15;2.50;;;;;;;2.58;54.60;100393.94;5087249;28;20085;-69
2022/01/29 01:39:31;;;;;;;7.20;2.33;;;;;;;2.30;54.83;100347.03;5088123;28;20048;-68
2022/01/29 01:42:06;;;;;;;6.97;2.88;;;;;;;2.60;54.69;100387.81;5088093;28;20044;-68
2022/01/29 01:44:42;;;;;;;4.93;2.58;;;;;;;2.59;54.73;100377.38;5088359;28;20045;-68
2022/01/29 01:47:17;;;;;;;6.57;2.47;;;;;;;2.27;54.94;100333.09;5088254;28;20041;-68
2022/01/29 01:49:49;;;;;;;;;;;;;;;2.52;54.88;100384.38;5087587;28;20082;-68
2022/01/29 01:52:22;;;;;;;5.68;2.70;;;;;;;2.55;54.87;100381.75;5087071;28;19966;-68
2022/01/29 01:54:54;;;;;;;8.38;2.92;;;;;;;2.51;54.97;100372.19;5087814;28;20049;-68
2022/01/29 01:57:26;;;;;;;6.93;2.80;;;;;;;2.15;55.14;100313.09;5087770;28;20044;-68
2022/01/29 01:59:59;;;;;;;5.90;2.78;;;;;;;2.49;55.07;100369.56;5087801;28;20114;-68
2022/01/29 02:02:33;;;;;;;6.63;2.20;;;;;;;2.51;55.12;100362.59;5087950;28;20040;-68
2022/01/29 02:05:06;;;;;;;5.03;2.50;;;;;;;2.49;55.03;100366.97;5086956;28;20040;-68
2022/01/29 02:07:39;;;;;;;7.53;2.63;;;;;;;2.19;55.05;100310.47;5087671;28;20047;-68
2022/01/29 02:10:12;;;;;;;5.88;2.95;;;;;;;2.13;55.19;100304.41;5087446;28;20052;-68
2022/01/29 02:12:49;;;;;;;9.07;2.30;;;;;;;2.45;55.10;100352.16;5087446;28;20036;-67
2022/01/29 02:15:23;;;;;;;5.88;3.60;;;;;;;2.43;55.21;100358.28;5088477;28;20048;-68
2022/01/29 02:17:58;;;;;;;7.55;2.63;;;;;;;2.42;55.24;100356.53;5087361;28;20049;-68
2022/01/29 02:20:32;;;;;;;5.05;2.30;;;;;;;1.82;55.27;100248.81;5086784;28;20207;-67
2022/01/29 02:23:05;;;;;;;14.73;3.95;;;;;;;2.41;55.03;100362.66;5087343;28;20234;-67
2022/01/29 02:25:40;;;;;;;3.90;2.47;;;;;;;2.41;55.18;100333.88;5087481;28;20086;-68
2022/01/29 02:28:14;;;;;;;7.32;2.60;;;;;;;2.38;55.16;100328.66;5086407;28;20246;-68
2022/01/29 02:30:48;;;;;;;5.28;1.83;;;;;;;2.35;55.51;100326.94;5087135;28;20082;-68
2022/01/29 02:33:20;;;;;;;9.23;2.63;;;;;;;2.03;55.44;100300.97;5087262;28;20040;-68
2022/01/29 02:35:55;;;;;;;5.32;2.72;;;;;;;2.29;55.71;100321.75;5087085;28;20085;-68
2022/01/29 02:38:29;;;;;;;7.63;3.10;;;;;;;2.27;56.00;100327.84;5087303;28;20036;-67
2022/01/29 02:41:01;;;;;;;7.60;2.95;;;;;;;2.25;55.92;100322.63;5087161;28;20067;-68
2022/01/29 02:43:39;;;;;;;8.35;3.22;;;;;;;2.19;56.13;100322.66;5087204;28;20040;-68
2022/01/29 02:46:21;;;;;;;7.22;3.35;;;;;;;1.93;56.03;100272.28;5087162;28;20242;-68
2022/01/29 02:48:54;;;;;;;6.68;2.60;;;;;;;1.69;56.04;100227.09;5086746;28;20059;-67
2022/01/29 02:51:26;;;;;;;5.95;2.63;;;;;;;2.23;56.04;100321.78;5087054;28;20049;-67
2022/01/29 02:54:00;;;;;;;8.45;2.88;;;;;;;2.19;56.38;100320.94;5086179;28;20044;-68
2022/01/29 02:56:32;;;;;;;7.18;3.03;;;;;;;2.20;56.24;100322.66;5086620;28;20428;-68
2022/01/29 02:59:05;;;;;;;5.28;3.25;;;;;;;2.18;56.49;100324.41;5086909;28;20048;-68
2022/01/29 03:01:38;;;;;;;6.43;2.80;;;;;;;2.21;56.78;100326.16;5086832;28;20044;-68
2022/01/29 03:04:10;;;;;;;7.90;3.10;;;;;;;2.18;56.70;100329.66;5086842;28;20098;-68
2022/01/29 03:06:42;;;;;;;10.63;4.00;;;;;;;-1.59;56.72;99684.25;5086814;28;20087;-68
2022/01/29 03:09:16;;;;;;;5.65;3.30;;;;;;;2.15;57.31;100331.41;5085627;28;20048;-68
2022/01/29 03:11:48;;;;;;;7.90;2.83;;;;;;;0.52;57.35;100069.19;5086706;28;20044;-68
2022/01/29 03:14:21;;;;;;;5.50;3.00;;;;;;;2.15;57.33;100354.94;5086758;28;20037;-68
2022/01/29 03:16:56;;;;;;;5.97;2.63;;;;;;;2.16;57.12;100323.56;5085380;28;20048;-66
2022/01/29 03:19:29;;;;;;;10.20;2.78;;;;;;;2.12;57.73;100320.97;5086430;28;20285;-66
2022/01/29 03:22:01;;;;;;;7.50;3.33;;;;;;;2.09;58.14;100326.22;5086224;28;20044;-66
2022/01/29 03:24:34;;;;;;;9.68;3.00;;;;;;;1.80;58.05;100282.78;5086372;28;20296;-66
2022/01/29 03:27:07;;;;;;;4.22;2.97;;;;;;;2.02;58.38;100322.75;5085517;28;20272;-66
2022/01/29 03:29:39;;;;;;;4.50;2.70;;;;;;;2.05;58.32;100325.38;5085915;28;20051;-66
2022/01/29 03:32:12;;;;;;;9.15;3.92;;;;;;;2.02;58.51;100322.75;5086100;28;20254;-66
2022/01/29 03:34:44;;;;;;;5.68;2.85;;;;;;;1.99;58.65;100329.75;5085330;28;20041;-66
2022/01/29 03:37:16;;;;;;;4.75;3.10;;;;;;;1.98;59.70;100326.28;5085379;28;20115;-66
2022/01/29 03:39:51;;;;;;;6.60;3.92;;;;;;;2.00;59.52;100321.03;5086168;28;20297;-66
2022/01/29 03:42:24;;;;;;;10.55;3.70;;;;;;;2.04;58.94;100318.41;5085136;28;20036;-66
2022/01/29 03:44:57;;;;;;;8.02;3.80;;;;;;;1.69;59.55;100281.97;5085519;28;20041;-67
2022/01/29 03:47:29;;;;;;;6.05;4.38;;;;;;;1.96;60.37;100319.31;5086045;28;20289;-66
2022/01/29 03:50:02;;;;;;;10.25;3.95;;;;;;;1.62;59.67;100266.34;5068559;28;20112;-66
2022/01/29 03:52:34;;;;;;;8.75;3.75;;;;;;;1.99;59.94;100321.91;5085137;28;20036;-66
2022/01/29 03:55:08;;;;;;;8.18;4.18;;;;;;;1.07;60.53;100196.00;5084807;28;20051;-66
2022/01/29 03:57:40;;;;;;;7.60;4.25;;;;;;;1.95;60.85;100312.34;5085805;28;20103;-66
2022/01/29 04:00:13;;;;;;;8.38;3.38;;;;;;;1.95;60.60;100307.13;5085511;28;20044;-66
2022/01/29 04:02:46;;;;;;;11.23;4.22;;;;;;;1.94;61.04;100308.00;5084932;28;20037;-66
2022/01/29 04:05:18;;;;;;;6.43;3.00;;;;;;;1.56;60.30;100236.72;5085709;28;20040;-69
2022/01/29 04:07:50;;;;;;;9.50;3.80;;;;;;;1.52;60.87;100242.81;5084661;28;20040;-66
2022/01/29 04:10:27;;;;;;;6.82;3.75;;;;;;;1.89;61.09;100308.03;5067882;28;20293;-66
2022/01/29 04:12:59;;;;;;;7.18;3.72;;;;;;;1.91;60.58;100301.03;5085411;28;20040;-67
2022/01/29 04:15:31;;;;;;;6.30;4.07;;;;;;;1.92;60.89;100307.13;5085391;28;20052;-66
2022/01/29 04:18:04;;;;;;;8.10;5.53;;;;;;;1.95;60.73;100304.50;5085176;28;20320;-66
2022/01/29 04:20:36;;;;;;;4.78;3.33;;;;;;;1.94;60.73;100314.09;5084747;28;20044;-66
2022/01/29 04:23:09;;;;;;;9.00;4.45;;;;;;;0.25;61.80;100028.41;5085586;28;20044;-66
2022/01/29 04:25:43;;;;;;;8.68;4.60;;;;;;;1.94;61.09;100316.72;5085331;28;20257;-66
2022/01/29 04:28:15;;;;;;;10.82;4.47;;;;;;;1.92;61.53;100307.13;5085183;28;20040;-66
2022/01/29 04:30:52;;;;;;;7.78;4.13;;;;;;;1.73;62.10;100281.09;5085130;28;20044;-66
2022/01/29 04:33:28;;;;;;;7.85;4.78;;;;;;;1.89;62.76;100313.25;5085498;28;20040;-66
2022/01/29 04:36:02;;;;;;;7.95;5.32;;;;;;;1.92;61.96;100304.53;5085236;28;20040;-66
2022/01/29 04:38:31;;;;;;;7.93;4.78;;;;;;;1.00;62.27;100191.66;5084590;28;20032;-66
2022/01/29 04:41:04;;;;;;;6.20;4.00;;;;;;;1.92;62.50;100308.00;5085152;28;20044;-66
2022/01/29 04:43:37;;;;;;;7.63;5.07;;;;;;;1.32;61.73;100228.09;5085480;28;20036;-66
2022/01/29 04:46:06;;;;;;;8.05;4.90;;;;;;;1.92;62.62;100294.94;5085442;28;20036;-66
2022/01/29 04:48:36;;;;;;;7.03;4.65;;;;;;;1.90;62.59;100299.28;5084305;28;20063;-66
2022/01/29 04:51:06;;;;;;;8.98;4.50;;;;;;;1.91;62.66;100301.03;5085619;28;20040;-66
2022/01/29 04:53:37;;;;;;;8.38;4.63;;;;;;;1.91;62.54;100293.19;5085023;28;20041;-67
2022/01/29 04:56:08;;;;;;;14.65;5.40;;;;;;;1.93;62.96;100301.91;5088334;28;20040;-66
2022/01/29 04:58:37;;;;;;;8.38;4.43;;;;;;;1.34;62.73;100195.03;5089266;28;20040;-66
2022/01/29 05:01:07;;;;;;;9.00;5.78;;;;;;;1.93;63.03;100293.19;5088548;28;20051;-66
2022/01/29 05:03:37;;;;;;;8.48;4.72;;;;;;;1.64;63.02;100231.47;5089745;28;20039;-66
2022/01/29 05:06:09;;;;;;;12.02;5.45;;;;;;;1.94;63.52;100282.72;5088699;28;20060;-66
2022/01/29 05:08:38;;;;;;;8.38;5.15;;;;;;;1.36;62.25;100185.44;5088515;28;20074;-66
2022/01/29 05:11:09;;;;;;;10.93;5.38;;;;;;;1.97;62.79;100285.31;5088732;28;20045;-66
2022/01/29 05:13:40;;;;;;;9.65;5.05;;;;;;;1.99;62.42;100283.56;5089242;28;20341;-66
2022/01/29 05:27:25;;;;;;;8.23;4.63;;;;;;;1.92;63.05;100289.69;5088249;28;20154;-66
2022/01/29 05:29:58;;;;;;;10.00;6.05;;;;;;;1.93;62.59;100288.81;5070773;28;20067;-66
2022/01/29 05:32:30;;;;;;;9.05;4.97;;;;;;;1.92;63.44;100289.69;5088345;28;20048;-66
2022/01/29 05:35:02;;;;;;;9.02;5.00;;;;;;;1.95;62.63;100284.47;5088555;28;20239;-66
2022/01/29 05:37:34;;;;;;;9.32;4.55;;;;;;;1.93;63.30;100287.97;5088519;28;20041;-66
2022/01/29 05:40:08;;;;;;;10.15;5.45;;;;;;;1.90;63.41;100287.09;5088172;28;20064;-67
2022/01/29 05:42:42;;;;;;;9.63;5.32;;;;;;;1.89;63.17;100287.97;5087584;28;20047;-66
2022/01/29 05:45:14;;;;;;;13.07;5.30;;;;;;;1.35;63.38;100208.06;5088320;28;20058;-66
2022/01/29 05:47:46;;;;;;;15.85;8.55;;;;;;;1.91;63.37;100287.97;5088320;28;20040;-66
2022/01/29 05:50:18;;;;;;;7.85;5.35;;;;;;;1.62;63.78;100233.22;5088194;28;20292;-66
2022/01/29 05:52:50;;;;;;;9.02;5.43;;;;;;;1.91;63.52;100274.91;5088269;28;20047;-66
2022/01/29 05:55:23;;;;;;;10.13;6.45;;;;;;;1.94;63.85;100271.41;5088008;28;20293;-66
2022/01/29 05:57:56;;;;;;;9.65;6.05;;;;;;;1.93;63.77;100272.28;5087912;28;20036;-68
2022/01/29 06:00:28;;;;;;;13.27;6.15;;;;;;;1.95;63.10;100281.84;5087345;28;20044;-66
2022/01/29 06:03:02;;;;;;;8.55;5.40;;;;;;;1.96;63.94;100275.75;5087010;28;20085;-66
2022/01/29 06:05:35;;;;;;;8.02;6.15;;;;;;;1.96;63.94;100278.34;5086885;28;20082;-66
2022/01/29 06:08:07;;;;;;;9.25;5.45;;;;;;;1.95;63.89;100271.38;5087366;28;20048;-67
2022/01/29 06:10:39;;;;;;;11.18;6.35;;;;;;;1.95;64.37;100268.78;5086712;28;20041;-66
2022/01/29 06:13:15;;;;;;;10.30;6.65;;;;;;;1.36;63.76;100170.63;5087782;28;20036;-66
2022/01/29 06:15:49;;;;;;;9.48;5.93;;;;;;;1.96;64.40;100274.88;5087985;28;20040;-66
2022/01/29 06:18:23;;;;;;;14.97;7.47;;;;;;;1.95;64.00;100263.53;5087288;28;20052;-67
2022/01/29 06:20:57;;;;;;;8.03;5.93;;;;;;;1.77;64.17;100227.91;5087826;28;20379;-66
2022/01/29 06:23:31;;;;;;;6.95;5.80;;;;;;;2.01;63.98;100257.41;5087457;28;20040;-66
2022/01/29 06:26:09;;;;;;;10.02;6.38;;;;;;;2.02;63.86;100256.53;5086390;28;20059;-66
2022/01/29 06:28:40;;;;;;;12.70;7.00;;;;;;;2.02;64.35;100251.31;5087430;28;20036;-66
2022/01/29 06:31:09;;;;;;;10.02;6.80;;;;;;;2.05;64.58;100253.91;5087075;28;20051;-66
2022/01/29 06:33:39;;;;;;;8.20;6.72;;;;;;;2.06;63.51;100253.03;5087383;28;20040;-66
2022/01/29 06:36:10;;;;;;;10.73;7.30;;;;;;;2.04;64.14;100260.00;5087304;28;20067;-66
2022/01/29 06:38:39;;;;;;;13.20;6.53;;;;;;;2.04;63.95;100253.03;5086124;28;20044;-67
2022/01/29 06:41:09;;;;;;;8.65;7.10;;;;;;;2.06;64.03;100258.25;5087227;28;20068;-68
2022/01/29 06:43:41;;;;;;;10.43;7.20;;;;;;;2.02;64.21;100246.94;5087094;28;20047;-66
2022/01/29 06:46:09;;;;;;;10.95;5.93;;;;;;;2.06;63.99;100245.19;5086041;28;20048;-66
2022/01/29 06:48:40;;;;;;;12.90;7.50;;;;;;;2.06;64.54;100243.44;5087004;28;20040;-68
2022/01/29 06:51:10;;;;;;;8.98;6.22;;;;;;;2.08;63.87;100240.81;5086554;28;20047;-67
2022/01/29 06:53:40;;;;;;;10.60;6.97;;;;;;;1.77;64.10;100221.81;5085946;28;20040;-67
2022/01/29 06:56:10;;;;;;;9.32;7.13;;;;;;;2.12;64.09;100240.78;5086717;28;20300;-67
2022/01/29 06:58:42;;;;;;;7.85;6.03;;;;;;;2.15;64.45;100245.97;5086661;28;20296;-69
2022/01/29 07:01:11;;;;;;;7.68;6.55;;;;;;;1.83;64.16;100173.00;5086745;28;20078;-66
2022/01/29 07:03:41;;;;;;;10.70;6.45;;;;;;;2.22;63.80;100228.50;5069099;28;20048;-66
2022/01/29 07:06:11;;;;;;;8.18;6.13;;;;;;;2.23;64.31;100232.84;5086600;28;20036;-66
2022/01/29 07:08:44;;;;;;;7.70;5.93;;;;;;;2.26;64.46;100239.81;5085899;28;20048;-66
2022/01/29 07:11:20;;;;;;;12.02;6.55;;;;;;;2.28;64.54;100243.28;5086266;28;20045;-66
2022/01/29 07:14:01;;;;;;;9.80;6.40;;;;;;;2.30;64.29;100249.38;5086494;28;20040;-67
2022/01/29 07:16:36;;;;;;;10.77;7.40;;;;;;;2.35;64.49;100240.59;5086225;28;20041;-68
2022/01/29 07:19:09;;;;;;;;;;;;;;;2.37;65.00;100236.22;5085751;28;20040;-68
2022/01/29 07:21:41;;;;;;;9.65;6.65;;;;;;;2.41;63.45;100237.06;5086427;28;19927;-68
2022/01/29 07:24:13;;;;;;;9.68;7.07;;;;;;;2.47;63.08;100230.03;5086106;28;20246;-69
2022/01/29 07:26:45;;;;;;;8.75;6.25;;;;;;;2.54;62.99;100230.84;5086053;28;20059;-68
2022/01/29 07:29:19;;;;;;;10.82;7.05;;;;;;;2.58;63.28;100223.84;5085194;28;20188;-68
2022/01/29 07:31:51;;;;;;;9.98;7.15;;;;;;;2.60;63.14;100215.09;5085792;28;20250;-68
2022/01/29 07:34:24;;;;;;;7.63;6.15;;;;;;;2.29;62.68;100151.72;5086115;28;20063;-68
2022/01/29 07:36:57;;;;;;;8.05;5.47;;;;;;;2.64;63.24;100231.63;5085713;28;20044;-68
2022/01/29 07:39:30;;;;;;;8.88;6.53;;;;;;;1.84;62.89;100114.63;5084959;28;20231;-67
2022/01/29 07:42:03;;;;;;;10.13;6.53;;;;;;;2.68;62.45;100205.41;5085748;28;20177;-68
2022/01/29 07:44:36;;;;;;;9.98;7.28;;;;;;;2.40;62.63;100154.22;5085915;28;20227;-67
2022/01/29 07:47:08;;;;;;;10.65;6.07;;;;;;;2.73;61.90;100211.47;5085822;28;20044;-68
2022/01/29 07:49:41;;;;;;;11.52;7.72;;;;;;;2.74;61.80;100207.97;5085742;28;20082;-67
2022/01/29 07:52:13;;;;;;;7.68;6.15;;;;;;;2.73;62.24;100211.47;5085764;28;20045;-68
2022/01/29 07:54:45;;;;;;;8.88;5.90;;;;;;;2.74;62.32;100207.97;5085454;28;20259;-68
2022/01/29 07:57:17;;;;;;;14.43;6.45;;;;;;;2.78;62.03;100219.28;5085399;28;20082;-68
2022/01/29 07:59:51;;;;;;;13.77;7.25;;;;;;;2.76;62.22;100205.34;5085455;28;20044;-67
2022/01/29 08:02:23;;;;;;;7.47;5.97;;;;;;;2.18;62.04;100090.78;5085660;28;20067;-68
2022/01/29 08:04:56;;;;;;;8.60;6.03;;;;;;;2.79;62.25;100190.47;5085290;28;20040;-68
2022/01/29 08:07:28;;;;;;;6.95;5.63;;;;;;;2.81;62.30;100199.19;5084410;28;20041;-67
2022/01/29 08:10:00;;;;;;;10.20;7.35;;;;;;;2.82;62.11;100184.34;5085515;28;20044;-68
2022/01/29 08:12:32;;;;;;;9.98;6.25;;;;;;;2.86;61.83;100175.56;5085182;28;20040;-68
2022/01/29 08:15:07;;;;;;;7.90;6.25;;;;;;;2.85;61.67;100166.84;5084545;28;20044;-68
2022/01/29 08:17:40;;;;;;;10.98;6.85;;;;;;;2.88;61.51;100166.81;5085280;28;20048;-68
2022/01/29 08:20:13;;;;;;;8.52;5.90;;;;;;;2.94;61.26;100167.63;5085196;28;20037;-67
2022/01/29 08:22:45;;;;;;;8.15;5.53;;;;;;;2.94;61.42;100178.97;5085218;28;20297;-68
2022/01/29 08:25:18;;;;;;;7.20;5.15;;;;;;;2.98;61.13;100179.81;5085209;28;20044;-67
2022/01/29 08:27:50;;;;;;;11.20;6.85;;;;;;;3.00;61.20;100172.78;5085483;28;20040;-68
2022/01/29 08:30:24;;;;;;;7.75;5.28;;;;;;;1.19;60.95;99862.59;5084840;28;20041;-68
2022/01/29 08:32:56;;;;;;;8.93;5.25;;;;;;;3.08;60.78;100174.44;5085361;28;20052;-68
2022/01/29 08:35:29;;;;;;;10.95;6.10;;;;;;;3.11;60.57;100182.25;5085297;28;20041;-67
2022/01/29 08:38:01;;;;;;;9.45;5.55;;;;;;;3.18;60.32;100177.81;5085370;28;20082;-66
2022/01/29 08:40:34;;;;;;;7.63;5.40;;;;;;;3.21;60.25;100190.88;5085079;28;20207;-67
2022/01/29 08:43:06;;;;;;;6.90;4.93;;;;;;;3.27;60.27;100187.31;5085224;28;20052;-68
2022/01/29 08:45:40;;;;;;;6.13;5.28;;;;;;;3.36;60.20;100181.97;5084993;28;20040;-68
2022/01/29 08:48:12;;;;;;;11.73;6.32;;;;;;;3.39;59.72;100172.31;5085300;28;20082;-68
2022/01/29 08:50:44;;;;;;;6.60;4.97;;;;;;;3.41;59.78;100183.63;5084925;28;20082;-68
2022/01/29 08:53:17;;;;;;;6.57;4.43;;;;;;;3.47;59.62;100180.06;5084612;28;20052;-67
2022/01/29 08:55:49;;;;;;;6.95;4.78;;;;;;;3.48;59.50;100164.31;5084641;28;20211;-68
2022/01/29 08:58:22;;;;;;;8.27;5.88;;;;;;;3.53;59.49;100173.00;5085025;28;20040;-67
2022/01/29 09:00:55;;;;;;;6.65;4.70;;;;;;;3.57;59.34;100160.72;5084843;28;20116;-67
2022/01/29 09:03:27;;;;;;;11.10;5.60;;;;;;;3.60;59.31;100157.19;5084986;28;20044;-67
2022/01/29 09:06:00;;;;;;;7.43;5.28;;;;;;;3.64;59.25;100153.63;5084785;28;20044;-67
2022/01/29 09:08:32;;;;;;;5.85;4.68;;;;;;;3.67;58.83;100157.06;5084700;28;20083;-67
2022/01/29 09:11:05;;;;;;;8.65;4.82;;;;;;;3.66;58.64;100164.94;5085040;28;20045;-67
2022/01/29 09:13:35;;;;;;;9.13;5.57;;;;;;;3.69;58.85;100149.19;5084653;28;20048;-67
2022/01/29 09:16:07;;;;;;;7.68;4.72;;;;;;;3.70;58.73;100156.16;5084676;28;20040;-68
2022/01/29 09:18:35;;;;;;;6.72;5.30;;;;;;;3.75;58.61;100159.59;5084422;28;20316;-67
2022/01/29 09:21:06;;;;;;;9.50;4.70;;;;;;;3.76;58.71;100156.94;5084450;28;20297;-67
2022/01/29 09:23:37;;;;;;;9.20;4.88;;;;;;;3.80;58.61;100147.28;5084475;28;20051;-67
2022/01/29 09:26:06;;;;;;;6.05;4.05;;;;;;;3.81;58.69;100151.63;5084518;28;20282;-67
2022/01/29 09:28:36;;;;;;;8.70;4.80;;;;;;;3.80;59.01;100126.28;5084513;28;20102;-67
2022/01/29 09:31:07;;;;;;;7.70;4.65;;;;;;;3.84;59.31;100134.09;5084522;28;20297;-67
2022/01/29 09:33:36;;;;;;;5.75;4.35;;;;;;;3.86;59.47;100131.44;5084285;28;20044;-68
2022/01/29 09:36:06;;;;;;;7.25;4.57;;;;;;;3.88;59.56;100113.94;5084498;28;20323;-67
2022/01/29 09:38:37;;;;;;;6.80;4.35;;;;;;;3.91;59.59;100118.25;5084327;28;20045;-67
2022/01/29 09:41:06;;;;;;;7.38;4.72;;;;;;;3.08;59.44;100011.19;5084706;28;20094;-67
2022/01/29 09:43:36;;;;;;;7.40;3.90;;;;;;;4.01;59.24;100104.97;5088165;28;20112;-67
2022/01/29 09:46:08;;;;;;;6.85;3.97;;;;;;;4.08;58.89;100097.88;5088134;28;20036;-68
2022/01/29 09:48:38;;;;;;;5.55;3.72;;;;;;;4.11;58.76;100090.81;5088234;28;20052;-67
2022/01/29 09:51:12;;;;;;;6.40;3.83;;;;;;;4.17;58.54;100097.69;5088417;28;20039;-68
2022/01/29 09:53:43;;;;;;;10.95;5.82;;;;;;;4.24;58.21;100094.13;5087759;28;20051;-67
2022/01/29 09:56:13;;;;;;;8.52;4.60;;;;;;;4.30;57.99;100091.38;5088084;28;20040;-68
2022/01/29 09:58:43;;;;;;;6.03;3.83;;;;;;;4.38;57.56;100091.25;5087966;28;20040;-67
2022/01/29 10:01:14;;;;;;;7.15;3.95;;;;;;;4.42;56.77;100078.03;5087931;28;20028;-68
2022/01/29 10:03:42;;;;;;;7.18;3.17;;;;;;;4.49;56.11;100089.28;5087858;28;20044;-67
2022/01/29 10:06:15;;;;;;;5.97;3.53;;;;;;;4.54;56.07;100074.31;5087552;28;20108;-67
2022/01/29 10:08:48;;;;;;;5.30;4.57;;;;;;;4.34;56.10;100010.84;5087443;28;20094;-67
2022/01/29 10:11:21;;;;;;;7.70;4.90;;;;;;;3.93;54.83;99978.34;5087392;28;20208;-67
2022/01/29 10:13:59;;;;;;;6.25;3.33;;;;;;;4.70;54.74;100064.38;5087592;28;20048;-68
2022/01/29 10:16:41;;;;;;;6.43;3.45;;;;;;;4.70;54.63;100046.00;5087359;28;20040;-68
2022/01/29 10:19:14;;;;;;;5.43;3.75;;;;;;;3.89;54.66;99918.13;5087403;28;20235;-67
2022/01/29 10:21:48;;;;;;;4.40;3.33;;;;;;;4.77;54.25;100032.69;5087535;28;20098;-68
2022/01/29 10:24:21;;;;;;;5.25;3.85;;;;;;;4.82;54.09;100036.09;5086470;28;20044;-67
2022/01/29 10:26:54;;;;;;;4.07;2.78;;;;;;;4.88;53.83;100036.88;5087380;28;20044;-67
2022/01/29 10:29:28;;;;;;;6.60;3.35;;;;;;;4.95;53.14;100042.00;5087327;28;20041;-68
2022/01/29 10:32:02;;;;;;;4.07;3.08;;;;;;;5.03;52.68;100037.44;5087236;28;20079;-68
2022/01/29 10:34:37;;;;;;;4.97;2.83;;;;;;;5.05;53.12;100033.00;5087020;28;20246;-67
2022/01/29 10:37:15;;;;;;;4.32;3.20;;;;;;;4.35;52.30;99886.59;5087306;28;20041;-67
2022/01/29 10:39:50;;;;;;;7.32;3.80;;;;;;;5.22;51.73;100011.59;5086890;28;20048;-68
2022/01/29 10:42:24;;;;;;;5.50;3.38;;;;;;;5.33;52.83;100017.47;5087182;28;20094;-68
2022/01/29 10:44:59;;;;;;;5.38;3.63;;;;;;;4.60;52.28;99898.28;5087159;28;20094;-68
2022/01/29 10:47:53;;;;;;;5.90;3.45;;;;;;;5.37;50.82;99994.63;5086735;28;20036;-68
2022/01/29 10:50:26;;;;;;;4.95;3.08;;;;;;;5.41;51.65;99998.91;5086858;28;20094;-67
2022/01/29 10:52:59;;;;;;;6.32;3.40;;;;;;;5.16;51.73;99956.56;5086551;28;20044;-68
2022/01/29 10:55:33;;;;;;;5.18;3.42;;;;;;;5.53;51.94;99992.47;5085892;28;20227;-68
2022/01/29 10:58:20;;;;;;;4.63;3.13;;;;;;;5.62;50.91;99984.38;5086673;28;20090;-68
2022/01/29 11:01:16;;;;;;;7.10;3.83;;;;;;;5.63;50.83;100007.13;5086912;28;20041;-67
2022/01/29 11:03:47;;;;;;;4.50;3.22;;;;;;;5.35;51.65;99941.22;5086472;28;20257;-68
2022/01/29 11:06:19;;;;;;;5.68;3.47;;;;;;;4.60;51.96;99813.41;5086249;28;20323;-67
2022/01/29 11:08:52;;;;;;;5.57;3.13;;;;;;;5.89;51.27;99991.56;5086352;28;20049;-68
2022/01/29 11:11:25;;;;;;;5.93;3.78;;;;;;;6.03;51.90;99972.78;5086469;28;20032;-67
2022/01/29 11:13:58;;;;;;;5.65;3.70;;;;;;;6.06;50.97;99991.09;5086439;28;20050;-67
2022/01/29 11:16:30;;;;;;;4.50;3.17;;;;;;;5.82;50.80;99950.53;5086033;28;20040;-68
2022/01/29 11:19:04;;;;;;;5.68;3.83;;;;;;;6.04;50.78;99974.50;5085358;28;20063;-68
2022/01/29 11:21:38;;;;;;;3.80;2.90;;;;;;;5.98;51.23;99996.56;5086101;28;20040;-68
2022/01/29 11:24:12;;;;;;;4.97;3.22;;;;;;;5.84;51.10;99982.91;5085527;28;20051;-69
2022/01/29 11:26:45;;;;;;;3.95;2.90;;;;;;;5.74;51.73;99987.56;5086340;28;20044;-68
2022/01/29 11:29:25;;;;;;;4.97;3.47;;;;;;;5.40;52.07;99921.81;5085181;28;20039;-68
2022/01/29 11:32:27;;;;;;;8.77;3.92;;;;;;;5.66;52.43;99989.50;5086264;28;20098;-67
2022/01/29 11:35:10;;;;;;;3.75;3.00;;;;;;;1.82;52.74;99323.63;5086127;28;20141;-68
2022/01/29 11:37:46;;;;;;;3.50;2.63;;;;;;;4.74;54.10;99842.84;5084961;28;20300;-67
2022/01/29 11:40:28;;;;;;;5.10;3.28;;;;;;;5.40;56.07;99979.63;5084925;28;20051;-68
2022/01/29 11:43:23;;;;;;;4.63;3.05;;;;;;;5.32;56.95;99967.56;5085721;28;20048;-68
2022/01/29 11:45:59;;;;;;;3.65;2.78;;;;;;;5.28;57.39;99964.16;5085753;28;20041;-68
2022/01/29 11:49:04;;;;;;;4.63;2.97;;;;;;;4.86;58.49;99907.34;5085677;28;20138;-68
2022/01/29 11:51:46;;;;;;;4.45;3.05;;;;;;;4.76;59.34;99932.94;5084955;28;20299;-68
2022/01/29 11:54:24;;;;;;;4.75;2.80;;;;;;;5.01;60.38;99959.56;5085556;28;20299;-68
2022/01/29 11:57:11;;;;;;;6.35;3.28;;;;;;;4.94;61.69;99939.56;5084776;28;20048;-68
2022/01/29 11:59:44;;;;;;;5.45;3.55;;;;;;;4.83;61.75;99934.53;5085730;28;20146;-68
2022/01/29 12:02:40;;;;;;;6.68;4.55;;;;;;;4.71;62.89;99935.69;5067697;28;20169;-68
2022/01/29 12:05:14;;;;;;;5.45;3.60;;;;;;;4.65;62.31;99921.81;5083660;28;20060;-67
2022/01/29 12:08:13;;;;;;;4.00;2.63;;;;;;;4.54;63.73;99927.31;5085701;28;20039;-68
2022/01/29 12:10:56;;;;;;;5.78;3.70;;;;;;;4.48;63.27;99915.19;5085407;28;20044;-68
2022/01/29 12:13:28;;;;;;;6.97;3.33;;;;;;;4.38;63.30;99915.41;5085332;28;20263;-67